createdAt,value
2018-02-27T00:01:57.653Z,65.22
2018-02-27T00:04:25.424Z,66.36
2018-02-27T00:06:52.988Z,66.71
2018-02-27T00:09:20.832Z,66.96
2018-02-27T00:11:48.407Z,67.87
2018-02-27T00:14:16.324Z,68.20
2018-02-27T00:16:43.971Z,69.32
2018-02-27T00:19:11.723Z,70.08
2018-02-27T00:21:39.396Z,69.60
2018-02-27T00:24:07.152Z,70.34
2018-02-27T00:26:34.983Z,70.83
2018-02-27T00:29:02.701Z,69.45
2018-02-27T00:31:30.435Z,70.03
2018-02-27T00:33:57.954Z,70.19
2018-02-27T00:36:25.587Z,69.97
2018-02-27T00:38:53.278Z,70.92
2018-02-27T00:41:20.835Z,70.41
2018-02-27T00:43:48.368Z,70.24
2018-02-27T00:46:15.963Z,69.50
2018-02-27T00:48:43.593Z,68.41
2018-02-27T00:51:11.100Z,68.82
2018-02-27T00:53:38.639Z,68.91
2018-02-27T00:56:06.353Z,69.63
2018-02-27T00:58:34.010Z,70.35
2018-02-27T01:01:01.630Z,70.15
2018-02-27T01:03:29.528Z,70.88
2018-02-27T01:05:57.069Z,70.44
2018-02-27T01:08:24.782Z,69.90
2018-02-27T01:10:52.372Z,69.44
2018-02-27T01:13:20.028Z,69.24
2018-02-27T01:15:47.769Z,69.08
2018-02-27T01:18:15.504Z,69.04
2018-02-27T01:20:43.138Z,68.75
2018-02-27T01:23:10.998Z,68.73
2018-02-27T01:25:38.543Z,68.14
2018-02-27T01:28:06.157Z,67.19
2018-02-27T01:30:34.131Z,67.22
2018-02-27T01:33:01.786Z,66.93
2018-02-27T01:35:29.488Z,67.26
2018-02-27T01:37:57.697Z,67.46
2018-02-27T01:40:25.874Z,68.26
2018-02-27T01:42:53.423Z,67.86
2018-02-27T01:45:21.006Z,67.81
2018-02-27T01:47:48.733Z,68.33
2018-02-27T01:50:16.269Z,68.54
2018-02-27T01:52:44.075Z,68.24
2018-02-27T01:55:11.608Z,67.96
2018-02-27T01:57:39.339Z,67.79
2018-02-27T02:00:06.865Z,67.60
2018-02-27T02:02:34.582Z,68.06
2018-02-27T02:05:02.102Z,67.83
2018-02-27T02:07:29.733Z,67.46
2018-02-27T02:09:57.312Z,67.14
2018-02-27T02:12:24.938Z,67.54
2018-02-27T02:14:52.583Z,67.96
2018-02-27T02:17:20.099Z,68.39
2018-02-27T02:19:47.625Z,68.08
2018-02-27T02:22:16.092Z,67.76
2018-02-27T02:24:43.664Z,67.54
2018-02-27T02:27:11.376Z,67.80
2018-02-27T02:29:39.382Z,67.71
2018-02-27T02:32:07.811Z,68.28
2018-02-27T02:34:36.147Z,67.79
2018-02-27T02:37:04.079Z,68.35
2018-02-27T02:39:31.645Z,67.87
2018-02-27T02:42:22.017Z,67.90
2018-02-27T02:44:49.555Z,68.24
2018-02-27T02:47:17.128Z,67.86
2018-02-27T02:49:44.698Z,68.20
2018-02-27T02:52:12.369Z,68.47
2018-02-27T02:54:39.899Z,68.40
2018-02-27T02:57:07.570Z,67.58
2018-02-27T02:59:35.225Z,68.79
2018-02-27T03:02:02.973Z,69.55
2018-02-27T03:04:30.647Z,68.02
2018-02-27T03:06:58.473Z,68.11
2018-02-27T03:09:25.998Z,68.32
2018-02-27T03:11:53.802Z,68.26
2018-02-27T03:14:21.477Z,68.26
2018-02-27T03:16:49.322Z,68.20
2018-02-27T03:19:16.849Z,68.91
2018-02-27T03:21:44.433Z,68.47
2018-02-27T03:24:11.918Z,67.42
2018-02-27T03:26:39.463Z,67.84
2018-02-27T03:29:06.933Z,68.66
2018-02-27T03:31:34.508Z,68.24
2018-02-27T03:34:02.165Z,67.74
2018-02-27T03:36:29.899Z,67.80
2018-02-27T03:38:57.391Z,68.43
2018-02-27T03:41:24.860Z,68.71
2018-02-27T03:43:52.469Z,68.51
2018-02-27T03:46:19.997Z,68.53
2018-02-27T03:48:47.744Z,68.16
2018-02-27T03:51:15.348Z,69.11
2018-02-27T03:53:42.892Z,68.17
2018-02-27T03:56:10.944Z,68.70
2018-02-27T03:58:38.567Z,68.35
2018-02-27T04:01:06.364Z,69.03
2018-02-27T04:03:33.889Z,68.23
2018-02-27T04:06:02.527Z,68.41
2018-02-27T04:08:30.100Z,68.24
2018-02-27T04:10:57.728Z,68.57
2018-02-27T04:13:25.910Z,69.20
2018-02-27T04:15:54.490Z,69.11
2018-02-27T04:18:22.059Z,69.15
2018-02-27T04:20:49.639Z,68.48
2018-02-27T04:23:17.270Z,68.29
2018-02-27T04:25:44.909Z,69.09
2018-02-27T04:28:12.513Z,68.93
2018-02-27T04:30:40.058Z,69.02
2018-02-27T04:33:07.746Z,69.82
2018-02-27T04:35:35.292Z,70.35
2018-02-27T04:38:02.933Z,70.34
2018-02-27T04:40:30.462Z,70.94
2018-02-27T04:42:58.008Z,70.78
2018-02-27T04:45:25.642Z,70.85
2018-02-27T04:47:53.157Z,71.99
2018-02-27T04:50:20.833Z,72.24
2018-02-27T04:52:48.494Z,72.32
2018-02-27T04:55:16.129Z,72.78
2018-02-27T04:57:43.952Z,73.75
2018-02-27T05:00:11.498Z,74.11
2018-02-27T05:02:39.462Z,74.58
2018-02-27T05:05:07.018Z,74.74
2018-02-27T05:07:34.569Z,75.35
2018-02-27T05:10:02.338Z,75.95
2018-02-27T05:12:29.890Z,76.11
2018-02-27T05:14:57.685Z,75.23
2018-02-27T05:17:25.533Z,73.73
2018-02-27T05:19:53.162Z,72.54
2018-02-27T05:22:20.759Z,72.28
2018-02-27T05:24:48.404Z,72.58
2018-02-27T05:27:16.405Z,71.70
2018-02-27T05:29:44.044Z,72.20
2018-02-27T05:32:11.758Z,71.71
2018-02-27T05:34:39.493Z,72.16
2018-02-27T05:37:07.140Z,71.34
2018-02-27T05:39:34.804Z,72.44
2018-02-27T05:42:02.573Z,73.59
2018-02-27T05:44:30.464Z,73.94
2018-02-27T05:46:58.169Z,73.15
2018-02-27T05:49:25.699Z,73.80
2018-02-27T05:51:53.261Z,75.07
2018-02-27T05:54:21.023Z,76.95
2018-02-27T05:56:48.554Z,76.70
2018-02-27T05:59:16.089Z,75.57
2018-02-27T06:01:43.664Z,76.00
2018-02-27T06:04:11.357Z,74.97
2018-02-27T06:06:38.967Z,74.96
2018-02-27T06:09:06.964Z,75.06
2018-02-27T06:11:34.777Z,75.36
2018-02-27T06:14:02.403Z,75.69
2018-02-27T06:16:29.944Z,76.07
2018-02-27T06:18:57.899Z,75.76
2018-02-27T06:21:25.427Z,76.03
2018-02-27T06:23:53.128Z,75.26
2018-02-27T06:26:20.694Z,75.77
2018-02-27T06:28:48.365Z,75.66
2018-02-27T06:31:16.062Z,75.45
2018-02-27T06:33:43.714Z,73.62
2018-02-27T06:36:11.390Z,73.84
2018-02-27T06:38:39.723Z,72.06
2018-02-27T06:41:07.499Z,72.27
2018-02-27T06:43:35.448Z,72.71
2018-02-27T06:46:03.085Z,71.16
2018-02-27T06:48:30.658Z,72.28
2018-02-27T06:50:58.234Z,72.67
2018-02-27T06:53:25.779Z,71.62
2018-02-27T06:55:53.322Z,71.41
2018-02-27T06:58:21.129Z,70.94
2018-02-27T07:00:48.888Z,70.96
2018-02-27T07:03:16.438Z,70.58
2018-02-27T07:05:43.958Z,70.10
2018-02-27T07:08:11.500Z,69.22
2018-02-27T07:10:39.397Z,69.81
2018-02-27T07:13:06.930Z,69.68
2018-02-27T07:15:34.564Z,69.10
2018-02-27T07:18:02.228Z,69.06
2018-02-27T07:20:29.884Z,68.74
2018-02-27T07:22:57.582Z,68.32
2018-02-27T07:25:25.174Z,68.66
2018-02-27T07:27:52.878Z,67.63
2018-02-27T07:30:21.448Z,67.72
2018-02-27T07:32:49.179Z,68.04
2018-02-27T07:35:17.720Z,67.65
2018-02-27T07:37:45.250Z,67.36
2018-02-27T07:40:12.942Z,67.57
2018-02-27T07:42:40.689Z,66.87
2018-02-27T07:45:08.292Z,67.84
2018-02-27T07:47:35.856Z,67.39
2018-02-27T07:50:04.421Z,66.96
2018-02-27T07:52:32.127Z,67.30
2018-02-27T07:54:59.744Z,67.28
2018-02-27T07:57:27.369Z,67.29
2018-02-27T07:59:55.044Z,66.43
2018-02-27T08:02:22.819Z,66.08
2018-02-27T08:04:50.604Z,65.96
2018-02-27T08:07:18.224Z,66.08
2018-02-27T08:09:45.846Z,65.59
2018-02-27T08:12:13.564Z,65.36
2018-02-27T08:14:41.190Z,65.29
2018-02-27T08:17:09.006Z,64.68
2018-02-27T08:19:36.985Z,63.82
2018-02-27T08:22:04.740Z,64.67
2018-02-27T08:24:32.383Z,64.67
2018-02-27T08:27:00.124Z,65.05
2018-02-27T08:29:27.850Z,64.64
2018-02-27T08:31:55.640Z,63.36
2018-02-27T08:34:23.159Z,61.25
2018-02-27T08:36:50.754Z,60.99
2018-02-27T08:39:18.297Z,61.71
2018-02-27T08:41:46.271Z,61.31
2018-02-27T08:44:14.108Z,60.26
2018-02-27T08:46:41.788Z,58.06
2018-02-27T08:49:09.474Z,58.17
2018-02-27T08:51:37.015Z,55.76
2018-02-27T08:54:04.606Z,53.01
2018-02-27T08:56:32.235Z,56.61
2018-02-27T08:58:59.823Z,55.47
2018-02-27T09:01:27.345Z,54.19
2018-02-27T09:03:54.929Z,53.74
2018-02-27T09:06:22.439Z,53.81
2018-02-27T09:08:50.548Z,55.79
2018-02-27T09:11:18.500Z,55.76
2018-02-27T09:13:46.110Z,55.45
2018-02-27T09:16:13.648Z,54.04
2018-02-27T09:18:41.391Z,53.38
2018-02-27T09:21:09.067Z,53.38
2018-02-27T09:23:36.714Z,52.38
2018-02-27T09:26:04.364Z,51.35
2018-02-27T09:28:32.004Z,51.33
2018-02-27T09:30:59.583Z,52.38
2018-02-27T09:33:27.219Z,52.43
2018-02-27T09:35:54.763Z,48.44
2018-02-27T09:38:22.374Z,48.34
2018-02-27T09:40:50.919Z,51.98
2018-02-27T09:43:18.443Z,53.65
2018-02-27T09:45:46.150Z,51.69
2018-02-27T09:48:13.819Z,49.71
2018-02-27T09:50:41.505Z,46.04
2018-02-27T09:53:09.035Z,45.25
2018-02-27T09:55:36.710Z,49.13
2018-02-27T09:58:04.297Z,47.73
2018-02-27T10:00:32.054Z,44.61
2018-02-27T10:02:59.640Z,42.97
2018-02-27T10:05:27.172Z,42.36
2018-02-27T10:07:54.787Z,43.77
2018-02-27T10:10:22.418Z,48.95
2018-02-27T10:12:50.133Z,50.37
2018-02-27T10:15:17.777Z,49.54
2018-02-27T10:17:45.428Z,50.12
2018-02-27T10:20:13.945Z,49.15
2018-02-27T10:22:41.556Z,50.21
2018-02-27T10:25:09.089Z,49.60
2018-02-27T10:27:36.760Z,48.34
2018-02-27T10:30:04.448Z,46.98
2018-02-27T10:32:32.020Z,44.69
2018-02-27T10:34:59.699Z,44.44
2018-02-27T10:37:27.266Z,42.50
2018-02-27T10:39:55.101Z,45.37
2018-02-27T10:42:22.762Z,48.11
2018-02-27T10:44:50.397Z,48.33
2018-02-27T10:47:18.202Z,52.54
2018-02-27T10:49:45.848Z,48.72
2018-02-27T10:52:13.488Z,49.26
2018-02-27T10:54:41.043Z,51.20
2018-02-27T10:57:08.859Z,49.32
2018-02-27T10:59:36.403Z,49.11
2018-02-27T11:02:11.887Z,50.02
2018-02-27T11:04:39.817Z,47.82
2018-02-27T11:07:07.389Z,49.40
2018-02-27T11:09:35.149Z,44.57
2018-02-27T11:12:02.784Z,42.63
2018-02-27T11:14:30.520Z,42.75
2018-02-27T11:16:58.202Z,44.06
2018-02-27T11:19:25.742Z,44.95
2018-02-27T11:21:53.712Z,42.88
2018-02-27T11:24:21.618Z,41.37
2018-02-27T11:26:49.171Z,42.40
2018-02-27T11:29:16.744Z,38.76
2018-02-27T11:31:44.414Z,36.97
2018-02-27T11:34:11.968Z,38.03
2018-02-27T11:36:39.533Z,40.29
2018-02-27T11:39:07.239Z,43.38
2018-02-27T11:41:34.923Z,43.70
2018-02-27T11:44:02.784Z,42.62
2018-02-27T11:46:31.122Z,43.93
2018-02-27T11:48:58.819Z,44.26
2018-02-27T11:51:26.463Z,43.25
2018-02-27T11:53:54.119Z,42.62
2018-02-27T11:56:21.799Z,44.59
2018-02-27T11:58:49.587Z,44.83
2018-02-27T12:01:17.364Z,45.02
2018-02-27T12:03:45.003Z,43.80
2018-02-27T12:06:12.629Z,46.30
2018-02-27T12:08:40.238Z,43.64
2018-02-27T12:11:07.790Z,43.89
2018-02-27T12:13:35.430Z,43.10
2018-02-27T12:16:03.329Z,43.83
2018-02-27T12:18:30.979Z,42.19
2018-02-27T12:20:58.594Z,42.12
2018-02-27T12:23:26.240Z,41.23
2018-02-27T12:25:53.764Z,39.52
2018-02-27T12:28:21.524Z,38.51
2018-02-27T12:30:49.489Z,38.37
2018-02-27T12:33:17.135Z,41.51
2018-02-27T12:35:44.828Z,40.88
2018-02-27T12:38:12.563Z,39.38
2018-02-27T12:40:41.235Z,37.57
2018-02-27T12:43:09.052Z,34.11
2018-02-27T12:45:36.699Z,29.00
2018-02-27T12:48:04.579Z,31.29
2018-02-27T12:50:32.195Z,30.99
2018-02-27T12:52:59.769Z,27.42
2018-02-27T12:55:27.460Z,33.11
2018-02-27T12:57:55.064Z,39.84
2018-02-27T13:00:22.609Z,41.73
2018-02-27T13:02:50.164Z,36.20
2018-02-27T13:05:18.343Z,32.56
2018-02-27T13:07:45.869Z,29.22
2018-02-27T13:10:13.651Z,33.15
2018-02-27T13:12:41.303Z,32.80
2018-02-27T13:15:08.860Z,30.83
2018-02-27T13:17:36.399Z,32.13
2018-02-27T13:20:04.019Z,34.00
2018-02-27T13:22:32.279Z,35.38
2018-02-27T13:24:59.958Z,37.08
2018-02-27T13:27:27.488Z,35.88
2018-02-27T13:29:55.245Z,31.96
2018-02-27T13:32:22.866Z,29.55
2018-02-27T13:34:50.645Z,26.30
2018-02-27T13:37:18.268Z,27.56
2018-02-27T13:39:45.889Z,31.71
2018-02-27T13:42:13.533Z,32.51
2018-02-27T13:44:41.278Z,36.08
2018-02-27T13:47:08.873Z,35.85
2018-02-27T13:49:36.477Z,37.01
2018-02-27T13:52:04.066Z,39.35
2018-02-27T13:54:31.629Z,42.28
2018-02-27T13:56:59.256Z,41.56
2018-02-27T13:59:26.898Z,41.84
2018-02-27T14:01:54.460Z,41.53
2018-02-27T14:04:21.987Z,38.94
2018-02-27T14:06:49.713Z,35.87
2018-02-27T14:09:17.280Z,35.43
2018-02-27T14:11:44.981Z,33.55
2018-02-27T14:14:12.624Z,35.36
2018-02-27T14:16:40.495Z,35.42
2018-02-27T14:19:08.124Z,35.53
2018-02-27T14:21:35.864Z,37.71
2018-02-27T14:24:03.558Z,35.60
2018-02-27T14:26:31.212Z,35.97
2018-02-27T14:28:58.909Z,37.56
2018-02-27T14:31:26.833Z,39.15
2018-02-27T14:33:54.524Z,39.94
2018-02-27T14:36:22.134Z,39.62
2018-02-27T14:38:49.850Z,37.93
2018-02-27T14:41:17.440Z,38.64
2018-02-27T14:43:44.985Z,38.84
2018-02-27T14:46:13.528Z,40.10
2018-02-27T14:48:41.199Z,38.82
2018-02-27T14:51:08.775Z,40.17
2018-02-27T14:53:36.548Z,39.23
2018-02-27T14:56:04.117Z,40.24
2018-02-27T14:58:31.719Z,39.91
2018-02-27T15:00:59.404Z,41.27
2018-02-27T15:03:27.024Z,41.57
2018-02-27T15:05:54.689Z,40.87
2018-02-27T15:08:22.474Z,40.49
2018-02-27T15:10:50.424Z,41.50
2018-02-27T15:13:18.253Z,41.17
2018-02-27T15:15:45.894Z,42.19
2018-02-27T15:18:13.498Z,41.93
2018-02-27T15:20:41.178Z,42.78
2018-02-27T15:23:09.657Z,43.52
2018-02-27T15:25:37.531Z,43.34
2018-02-27T15:28:05.222Z,43.86
2018-02-27T15:30:33.058Z,43.11
2018-02-27T15:33:00.780Z,42.51
2018-02-27T15:35:28.343Z,43.64
2018-02-27T15:37:56.033Z,44.31
2018-02-27T15:40:23.779Z,44.93
2018-02-27T15:42:51.378Z,45.27
2018-02-27T15:45:19.004Z,44.40
2018-02-27T15:47:46.724Z,43.35
2018-02-27T15:50:14.280Z,43.83
2018-02-27T15:52:41.853Z,44.58
2018-02-27T15:55:09.630Z,44.38
2018-02-27T15:57:37.214Z,44.56
2018-02-27T16:00:04.793Z,45.49
2018-02-27T16:02:32.939Z,45.64
2018-02-27T16:05:00.938Z,45.39
2018-02-27T16:07:28.549Z,45.27
2018-02-27T16:09:56.083Z,45.68
2018-02-27T16:12:23.655Z,46.35
2018-02-27T16:14:51.306Z,47.11
2018-02-27T16:17:18.909Z,46.97
2018-02-27T16:19:46.459Z,48.25
2018-02-27T16:22:14.105Z,48.47
2018-02-27T16:24:41.690Z,49.03
2018-02-27T16:27:09.508Z,48.90
2018-02-27T16:29:37.203Z,48.01
2018-02-27T16:32:05.060Z,48.62
2018-02-27T16:34:32.681Z,49.30
2018-02-27T16:37:00.286Z,48.23
2018-02-27T16:39:27.855Z,48.90
2018-02-27T16:41:55.513Z,49.90
2018-02-27T16:44:23.160Z,49.20
2018-02-27T16:46:50.738Z,49.54
2018-02-27T16:49:18.306Z,49.67
2018-02-27T16:51:45.990Z,50.11
2018-02-27T16:54:13.685Z,50.44
2018-02-27T16:56:41.375Z,50.45
2018-02-27T16:59:09.000Z,51.50
2018-02-27T17:01:36.554Z,51.90
2018-02-27T17:04:04.283Z,51.60
2018-02-27T17:06:31.919Z,50.76
2018-02-27T17:08:59.564Z,51.66
2018-02-27T17:11:27.128Z,52.19
2018-02-27T17:13:54.690Z,51.56
2018-02-27T17:16:22.332Z,51.19
2018-02-27T17:18:49.916Z,51.89
2018-02-27T17:21:17.503Z,51.69
2018-02-27T17:23:45.128Z,51.44
2018-02-27T17:26:12.894Z,52.33
2018-02-27T17:28:40.469Z,52.51
2018-02-27T17:31:08.080Z,53.28
2018-02-27T17:33:35.964Z,52.96
2018-02-27T17:36:03.861Z,52.97
2018-02-27T17:38:31.579Z,52.64
2018-02-27T17:40:59.138Z,53.17
2018-02-27T17:43:26.948Z,53.82
2018-02-27T17:45:54.585Z,53.62
2018-02-27T17:48:22.265Z,53.22
2018-02-27T17:50:49.841Z,52.82
2018-02-27T17:53:17.456Z,53.57
2018-02-27T17:55:45.333Z,53.35
2018-02-27T17:58:13.118Z,52.78
2018-02-27T18:00:40.809Z,52.95
2018-02-27T18:03:08.417Z,53.10
2018-02-27T18:05:36.026Z,53.62
2018-02-27T18:08:03.709Z,54.03
2018-02-27T18:10:31.533Z,54.36
2018-02-27T18:12:59.122Z,55.41
2018-02-27T18:15:26.897Z,56.43
2018-02-27T18:17:54.481Z,56.34
2018-02-27T18:20:22.123Z,57.09
2018-02-27T18:22:49.685Z,56.90
2018-02-27T18:25:17.338Z,56.84
2018-02-27T18:27:44.916Z,57.68
2018-02-27T18:30:12.581Z,57.30
2018-02-27T18:32:40.185Z,58.78
2018-02-27T18:35:07.759Z,58.69
2018-02-27T18:37:35.339Z,58.83
2018-02-27T18:40:03.204Z,59.59
2018-02-27T18:42:30.780Z,60.92
2018-02-27T18:44:58.511Z,62.53
2018-02-27T18:47:26.144Z,62.13
2018-02-27T18:49:53.786Z,61.34
2018-02-27T18:52:21.443Z,61.10
2018-02-27T18:54:49.130Z,60.76
2018-02-27T18:57:16.770Z,61.96
2018-02-27T18:59:44.311Z,62.91
2018-02-27T19:02:12.119Z,64.23
2018-02-27T19:04:39.659Z,64.09
2018-02-27T19:07:07.272Z,63.78
2018-02-27T19:09:34.884Z,63.83
2018-02-27T19:12:02.615Z,64.75
2018-02-27T19:14:30.282Z,65.36
2018-02-27T19:16:58.152Z,65.46
2018-02-27T19:19:25.837Z,65.88
2018-02-27T19:21:53.530Z,66.26
2018-02-27T19:24:21.284Z,66.90
2018-02-27T19:26:48.860Z,66.59
2018-02-27T19:29:16.509Z,66.23
2018-02-27T19:31:44.319Z,65.80
2018-02-27T19:34:12.195Z,65.73
2018-02-27T19:36:39.760Z,66.83
2018-02-27T19:39:07.536Z,66.91
2018-02-27T19:41:35.242Z,67.45
2018-02-27T19:44:02.990Z,67.71
2018-02-27T19:46:30.635Z,67.62
2018-02-27T19:48:58.172Z,67.66
2018-02-27T19:51:25.795Z,68.40
2018-02-27T19:53:53.641Z,68.63
2018-02-27T19:56:21.321Z,68.77
2018-02-27T19:58:49.065Z,69.41
2018-02-27T20:01:16.915Z,69.68
2018-02-27T20:03:44.551Z,69.30
2018-02-27T20:06:12.236Z,68.63
2018-02-27T20:08:39.906Z,69.91
2018-02-27T20:11:07.599Z,71.06
2018-02-27T20:13:35.316Z,71.69
2018-02-27T20:16:03.177Z,71.85
2018-02-27T20:18:30.866Z,71.48
2018-02-27T20:20:58.550Z,71.94
2018-02-27T20:23:31.614Z,72.32
2018-02-27T20:25:59.158Z,72.04
2018-02-27T20:28:32.405Z,72.58
2018-02-27T20:31:00.110Z,71.72
2018-02-27T20:33:27.666Z,71.60
2018-02-27T20:35:55.563Z,71.41
2018-02-27T20:38:28.771Z,72.71
2018-02-27T20:40:56.691Z,72.52
2018-02-27T20:43:24.433Z,72.15
2018-02-27T20:45:52.104Z,70.84
2018-02-27T20:48:20.285Z,70.30
2018-02-27T20:50:47.856Z,69.98
2018-02-27T20:53:15.505Z,71.56
2018-02-27T20:55:43.159Z,70.98
2018-02-27T20:58:11.325Z,70.58
2018-02-27T21:00:38.914Z,72.70
2018-02-27T21:03:06.604Z,73.55
2018-02-27T21:05:34.266Z,72.59
2018-02-27T21:08:01.867Z,74.14
2018-02-27T21:10:29.583Z,73.41
2018-02-27T21:12:57.118Z,73.52
2018-02-27T21:15:24.876Z,73.31
2018-02-27T21:17:52.558Z,72.21
2018-02-27T21:20:20.184Z,72.02
2018-02-27T21:22:47.768Z,72.69
2018-02-27T21:25:15.599Z,73.52
2018-02-27T21:27:43.244Z,76.11
2018-02-27T21:30:10.819Z,76.38
2018-02-27T21:32:38.471Z,76.37
2018-02-27T21:35:06.258Z,76.53
2018-02-27T21:37:33.970Z,76.94
2018-02-27T21:40:01.560Z,76.90
2018-02-27T21:42:29.309Z,77.22
2018-02-27T21:44:56.890Z,76.76
2018-02-27T21:47:25.019Z,76.94
2018-02-27T21:49:52.585Z,78.58
2018-02-27T21:52:20.521Z,79.66
2018-02-27T21:54:48.177Z,80.18
2018-02-27T21:57:15.782Z,79.91
2018-02-27T21:59:43.554Z,80.64
2018-02-27T22:02:11.320Z,81.28
2018-02-27T22:04:39.759Z,81.01
2018-02-27T22:07:07.411Z,80.89
2018-02-27T22:09:35.158Z,80.24
2018-02-27T22:12:02.725Z,79.58
2018-02-27T22:14:30.533Z,80.50
2018-02-27T22:16:58.293Z,80.24
2018-02-27T22:19:25.841Z,81.40
2018-02-27T22:21:53.594Z,81.37
2018-02-27T22:24:21.279Z,81.95
2018-02-27T22:26:49.019Z,81.54
2018-02-27T22:29:16.651Z,81.88
2018-02-27T22:31:44.455Z,81.61
2018-02-27T22:34:12.394Z,80.66
2018-02-27T22:36:39.965Z,81.01
2018-02-27T22:39:07.579Z,80.25
2018-02-27T22:41:35.159Z,80.18
2018-02-27T22:44:02.738Z,80.37
2018-02-27T22:46:30.358Z,79.74
2018-02-27T22:48:58.659Z,80.45
2018-02-27T22:51:26.229Z,81.12
2018-02-27T22:53:53.778Z,82.42
2018-02-27T22:56:21.594Z,81.77
2018-02-27T22:58:49.410Z,81.82
2018-02-27T23:01:17.050Z,82.52
2018-02-27T23:03:45.322Z,82.45
2018-02-27T23:06:12.959Z,82.34
2018-02-27T23:08:40.544Z,82.52
2018-02-27T23:11:08.249Z,83.58
2018-02-27T23:13:35.868Z,83.96
2018-02-27T23:16:03.460Z,83.45
2018-02-27T23:18:31.584Z,83.21
2018-02-27T23:20:59.288Z,82.49
2018-02-27T23:23:26.984Z,82.56
2018-02-27T23:26:05.068Z,82.46
2018-02-27T23:28:35.300Z,83.22
2018-02-27T23:31:03.395Z,83.90
2018-02-27T23:33:31.695Z,84.63
2018-02-27T23:35:59.613Z,84.40
2018-02-27T23:38:27.189Z,84.30
2018-02-27T23:40:55.124Z,83.56
2018-02-27T23:43:22.767Z,83.93
2018-02-27T23:45:50.328Z,84.48
2018-02-27T23:48:17.996Z,84.18
2018-02-27T23:50:45.708Z,84.61
2018-02-27T23:53:13.253Z,84.76
2018-02-27T23:55:40.835Z,84.00
